createdAt,value
2023-02-10T00:01:21.667Z,15.50
2023-02-10T00:03:48.927Z,15.10
2023-02-10T00:06:17.393Z,15.13
2023-02-10T00:08:48.457Z,16.87
2023-02-10T00:11:16.729Z,15.33
2023-02-10T00:13:44.092Z,15.87
2023-02-10T00:16:14.298Z,15.93
2023-02-10T00:18:41.809Z,19.23
2023-02-10T00:21:14.605Z,28.57
2023-02-10T00:23:41.688Z,19.67
2023-02-10T00:26:12.372Z,16.00
2023-02-10T00:28:41.644Z,22.93
2023-02-10T00:31:11.469Z,24.17
2023-02-10T00:33:39.368Z,20.20
2023-02-10T00:36:09.057Z,17.40
2023-02-10T00:38:35.987Z,27.13
2023-02-10T00:41:08.968Z,24.40
2023-02-10T00:43:37.420Z,17.47
2023-02-10T00:46:04.791Z,22.03
2023-02-10T00:48:31.649Z,22.40
2023-02-10T00:50:58.738Z,17.87
2023-02-10T00:53:25.771Z,16.70
2023-02-10T00:55:53.348Z,16.27
2023-02-10T00:58:20.928Z,16.03
2023-02-10T01:00:48.783Z,16.13
2023-02-10T01:03:15.985Z,15.70
2023-02-10T01:05:43.774Z,16.57
2023-02-10T01:08:10.573Z,15.43
2023-02-10T01:10:37.647Z,15.17
2023-02-10T01:13:06.003Z,17.33
2023-02-10T01:15:33.446Z,15.90
2023-02-10T01:18:00.727Z,14.23
2023-02-10T01:20:28.378Z,15.13
2023-02-10T01:22:55.189Z,15.63
2023-02-10T01:25:22.176Z,14.37
2023-02-10T01:27:50.616Z,15.67
2023-02-10T01:30:17.649Z,15.47
2023-02-10T01:32:44.435Z,16.30
2023-02-10T01:35:11.510Z,14.27
2023-02-10T01:37:38.943Z,14.27
2023-02-10T01:40:06.750Z,16.30
2023-02-10T01:42:33.518Z,14.90
2023-02-10T01:45:15.572Z,14.97
2023-02-10T01:47:43.440Z,14.67
2023-02-10T01:50:12.561Z,14.20
2023-02-10T01:52:40.917Z,14.27
2023-02-10T01:55:15.369Z,13.23
2023-02-10T01:57:44.272Z,15.80
2023-02-10T02:00:13.392Z,14.13
2023-02-10T02:02:42.484Z,13.07
2023-02-10T02:05:28.873Z,15.10
2023-02-10T02:07:56.853Z,14.20
2023-02-10T02:10:39.718Z,14.37
2023-02-10T02:13:17.660Z,13.70
2023-02-10T02:16:06.002Z,13.30
2023-02-10T02:18:40.737Z,14.03
2023-02-10T02:21:35.878Z,13.80
2023-02-10T02:24:05.594Z,13.57
2023-02-10T02:26:51.152Z,13.07
2023-02-10T02:29:39.608Z,14.00
2023-02-10T02:32:49.080Z,12.90
2023-02-10T02:35:27.102Z,13.40
2023-02-10T02:37:55.425Z,12.13
2023-02-10T02:40:22.673Z,13.90
2023-02-10T02:42:51.171Z,13.73
2023-02-10T02:45:21.522Z,13.67
2023-02-10T02:48:16.665Z,14.10
2023-02-10T02:51:06.057Z,13.20
2023-02-10T02:54:01.725Z,12.37
2023-02-10T02:56:51.435Z,11.87
2023-02-10T02:59:50.130Z,12.57
2023-02-10T03:02:20.460Z,12.97
2023-02-10T03:04:49.689Z,13.43
2023-02-10T03:07:16.463Z,11.93
2023-02-10T03:09:45.096Z,13.63
2023-02-10T03:12:13.519Z,14.03
2023-02-10T03:14:40.635Z,12.57
2023-02-10T03:17:07.498Z,13.77
2023-02-10T03:19:34.618Z,14.03
2023-02-10T03:22:02.176Z,12.53
2023-02-10T03:24:29.277Z,14.07
2023-02-10T03:26:56.115Z,13.83
2023-02-10T03:29:24.704Z,12.83
2023-02-10T03:31:51.596Z,13.37
2023-02-10T03:34:18.732Z,12.40
2023-02-10T03:36:45.620Z,12.50
2023-02-10T03:39:12.596Z,14.00
2023-02-10T03:41:39.439Z,14.47
2023-02-10T03:44:07.188Z,13.67
2023-02-10T03:46:34.149Z,12.73
2023-02-10T03:49:01.304Z,14.07
2023-02-10T03:51:28.015Z,13.30
2023-02-10T03:53:54.997Z,14.33
2023-02-10T03:56:22.493Z,13.67
2023-02-10T03:58:49.444Z,13.33
2023-02-10T04:01:18.095Z,12.23
2023-02-10T04:03:45.751Z,14.07
2023-02-10T04:06:13.078Z,14.57
2023-02-10T04:08:40.734Z,12.97
2023-02-10T04:11:08.974Z,14.47
2023-02-10T04:13:37.129Z,13.30
2023-02-10T04:16:06.735Z,14.60
2023-02-10T04:18:34.309Z,13.57
2023-02-10T04:21:03.006Z,14.40
2023-02-10T04:23:30.713Z,14.87
2023-02-10T04:25:57.545Z,14.50
2023-02-10T04:28:24.667Z,14.33
2023-02-10T04:30:56.350Z,13.80
2023-02-10T04:33:25.867Z,14.77
2023-02-10T04:35:54.334Z,13.43
2023-02-10T04:38:22.326Z,14.23
2023-02-10T04:40:49.101Z,14.67
2023-02-10T04:43:16.272Z,13.97
2023-02-10T04:45:43.396Z,14.50
2023-02-10T04:48:10.661Z,14.70
2023-02-10T04:50:38.259Z,13.87
2023-02-10T04:53:06.145Z,13.60
2023-02-10T04:55:33.795Z,14.90
2023-02-10T04:58:01.530Z,13.97
2023-02-10T05:00:28.372Z,13.83
2023-02-10T05:02:55.728Z,13.67
2023-02-10T05:05:25.840Z,14.10
2023-02-10T05:07:53.357Z,14.37
2023-02-10T05:10:21.234Z,13.83
2023-02-10T05:12:48.591Z,14.37
2023-02-10T05:15:15.492Z,14.57
2023-02-10T05:17:42.534Z,13.77
2023-02-10T05:20:10.224Z,15.20
2023-02-10T05:22:40.793Z,14.57
2023-02-10T05:25:08.325Z,14.43
2023-02-10T05:27:36.868Z,14.73
2023-02-10T05:30:06.020Z,14.53
2023-02-10T05:32:34.152Z,14.90
2023-02-10T05:35:00.884Z,14.77
2023-02-10T05:37:27.973Z,13.90
2023-02-10T05:39:54.677Z,14.27
2023-02-10T05:42:21.677Z,13.47
2023-02-10T05:44:48.386Z,14.37
2023-02-10T05:47:15.336Z,14.70
2023-02-10T05:49:42.238Z,16.20
2023-02-10T05:52:09.217Z,14.83
2023-02-10T05:54:36.188Z,15.33
2023-02-10T05:57:03.711Z,16.20
2023-02-10T05:59:30.528Z,16.17
2023-02-10T06:01:57.647Z,14.47
2023-02-10T06:04:24.644Z,16.27
2023-02-10T06:06:52.188Z,14.57
2023-02-10T06:09:19.519Z,15.00
2023-02-10T06:11:46.579Z,14.67
2023-02-10T06:14:13.393Z,14.57
2023-02-10T06:16:40.446Z,15.07
2023-02-10T06:19:07.213Z,15.17
2023-02-10T06:21:34.246Z,14.20
2023-02-10T06:24:01.061Z,15.07
2023-02-10T06:26:28.933Z,14.40
2023-02-10T06:28:57.136Z,15.60
2023-02-10T06:31:26.474Z,14.60
2023-02-10T06:33:53.687Z,14.47
2023-02-10T06:36:20.965Z,16.40
2023-02-10T06:38:48.856Z,15.10
2023-02-10T06:41:16.349Z,14.93
2023-02-10T06:43:43.730Z,14.97
2023-02-10T06:46:11.816Z,15.73
2023-02-10T06:48:38.673Z,15.00
2023-02-10T06:51:05.994Z,16.53
2023-02-10T06:53:32.836Z,15.87
2023-02-10T06:56:00.070Z,16.00
2023-02-10T06:58:26.933Z,15.07
2023-02-10T07:00:54.148Z,15.43
2023-02-10T07:03:20.912Z,15.57
2023-02-10T07:05:48.267Z,17.20
2023-02-10T07:08:15.216Z,15.97
2023-02-10T07:10:42.373Z,14.93
2023-02-10T07:13:09.400Z,15.43
2023-02-10T07:15:36.825Z,15.63
2023-02-10T07:18:03.666Z,16.30
2023-02-10T07:20:30.686Z,16.43
2023-02-10T07:22:57.504Z,16.10
2023-02-10T07:25:24.533Z,14.97
2023-02-10T07:27:51.569Z,15.57
2023-02-10T07:30:18.718Z,15.87
2023-02-10T07:32:45.508Z,15.67
2023-02-10T07:35:13.208Z,16.93
2023-02-10T07:37:40.905Z,16.17
2023-02-10T07:40:09.345Z,15.33
2023-02-10T07:42:36.178Z,16.60
2023-02-10T07:45:19.421Z,15.70
2023-02-10T07:47:46.254Z,16.50
2023-02-10T07:50:13.286Z,16.23
2023-02-10T07:52:42.372Z,16.43
2023-02-10T07:55:09.369Z,16.47
2023-02-10T07:57:36.962Z,16.30
2023-02-10T08:00:04.176Z,17.40
2023-02-10T08:02:40.062Z,15.63
2023-02-10T08:05:07.379Z,16.60
2023-02-10T08:07:34.331Z,16.77
2023-02-10T08:10:01.387Z,17.07
2023-02-10T08:12:28.081Z,16.53
2023-02-10T08:14:55.613Z,16.30
2023-02-10T08:17:22.461Z,16.07
2023-02-10T08:19:49.519Z,16.40
2023-02-10T08:22:16.420Z,16.70
2023-02-10T08:24:43.482Z,17.13
2023-02-10T08:27:12.334Z,17.13
2023-02-10T08:29:39.653Z,17.17
2023-02-10T08:32:06.429Z,17.83
2023-02-10T08:34:33.527Z,16.40
2023-02-10T08:37:00.898Z,18.43
2023-02-10T08:39:29.635Z,19.20
2023-02-10T08:41:56.509Z,17.97
2023-02-10T08:44:23.527Z,17.87
2023-02-10T08:46:50.406Z,19.20
2023-02-10T08:49:17.472Z,18.83
2023-02-10T08:51:44.515Z,16.93
2023-02-10T08:54:11.579Z,16.63
2023-02-10T08:56:38.334Z,18.93
2023-02-10T08:59:06.675Z,18.90
2023-02-10T09:01:33.685Z,17.47
2023-02-10T09:04:01.075Z,16.80
2023-02-10T09:06:31.521Z,16.80
2023-02-10T09:08:59.894Z,18.97
2023-02-10T09:11:27.723Z,18.90
2023-02-10T09:13:54.856Z,19.53
2023-02-10T09:16:21.901Z,18.93
2023-02-10T09:18:49.070Z,18.27
2023-02-10T09:21:15.988Z,19.87
2023-02-10T09:23:45.863Z,19.43
2023-02-10T09:26:12.974Z,20.87
2023-02-10T09:28:40.423Z,21.00
2023-02-10T09:31:09.140Z,20.73
2023-02-10T09:33:36.903Z,20.80
2023-02-10T09:36:05.444Z,21.23
2023-02-10T09:38:34.722Z,22.77
2023-02-10T09:41:08.506Z,21.83
2023-02-10T09:43:51.279Z,21.13
2023-02-10T09:46:42.506Z,22.63
2023-02-10T09:49:18.423Z,22.13
2023-02-10T09:52:32.971Z,21.53
2023-02-10T09:55:01.268Z,21.13
2023-02-10T09:57:41.039Z,21.43
2023-02-10T10:00:29.332Z,21.23
2023-02-10T10:02:58.707Z,20.63
2023-02-10T10:05:41.274Z,21.07
2023-02-10T10:08:19.783Z,21.37
2023-02-10T10:10:46.976Z,21.47
2023-02-10T10:13:23.936Z,21.33
2023-02-10T10:16:15.666Z,21.77
2023-02-10T10:19:21.256Z,20.60
2023-02-10T10:22:11.967Z,21.43
2023-02-10T10:24:55.322Z,22.20
2023-02-10T10:27:33.570Z,21.33
2023-02-10T10:30:15.640Z,22.87
2023-02-10T10:32:46.477Z,23.37
2023-02-10T10:35:17.597Z,24.43
2023-02-10T10:37:45.157Z,24.03
2023-02-10T10:40:31.892Z,23.30
2023-02-10T10:43:01.767Z,22.37
2023-02-10T10:45:45.484Z,21.60
2023-02-10T10:48:30.422Z,22.40
2023-02-10T10:51:01.439Z,23.30
2023-02-10T10:53:45.373Z,22.87
2023-02-10T10:56:44.869Z,21.63
2023-02-10T10:59:19.149Z,24.03
2023-02-10T11:01:47.652Z,23.77
2023-02-10T11:04:20.888Z,23.77
2023-02-10T11:06:51.115Z,24.50
2023-02-10T11:09:32.246Z,24.43
2023-02-10T11:12:05.062Z,23.93
2023-02-10T11:14:41.919Z,23.63
2023-02-10T11:17:19.686Z,25.00
2023-02-10T11:19:55.728Z,24.07
2023-02-10T11:22:22.706Z,24.13
2023-02-10T11:24:55.836Z,24.47
2023-02-10T11:27:23.336Z,24.10
2023-02-10T11:29:55.677Z,23.73
2023-02-10T11:32:29.012Z,25.37
2023-02-10T11:35:03.532Z,24.70
2023-02-10T11:37:33.901Z,25.83
2023-02-10T11:40:04.438Z,23.87
2023-02-10T11:42:35.203Z,26.40
2023-02-10T11:45:11.359Z,23.23
2023-02-10T11:47:38.135Z,25.53
2023-02-10T11:50:20.413Z,24.03
2023-02-10T11:52:47.250Z,25.43
2023-02-10T11:55:16.356Z,25.20
2023-02-10T11:58:18.304Z,25.10
2023-02-10T12:00:55.920Z,25.07
2023-02-10T12:03:50.291Z,26.93
2023-02-10T12:06:37.379Z,24.30
2023-02-10T12:09:18.125Z,25.53
2023-02-10T12:11:55.716Z,25.40
2023-02-10T12:15:00.118Z,26.07
2023-02-10T12:17:33.043Z,26.43
2023-02-10T12:20:24.772Z,25.30
2023-02-10T12:23:00.717Z,25.20
2023-02-10T12:25:39.192Z,24.77
2023-02-10T12:28:28.871Z,25.20
2023-02-10T12:31:24.140Z,25.60
2023-02-10T12:34:16.428Z,26.33
2023-02-10T12:37:14.130Z,24.43
2023-02-10T12:39:59.430Z,24.13
2023-02-10T12:42:45.647Z,24.90
2023-02-10T12:45:29.571Z,25.80
2023-02-10T12:48:10.927Z,24.73
2023-02-10T12:51:12.385Z,25.17
2023-02-10T12:53:49.523Z,25.10
2023-02-10T12:56:16.622Z,25.27
2023-02-10T12:58:52.614Z,24.40
2023-02-10T13:01:37.259Z,25.37
2023-02-10T13:04:23.775Z,25.97
2023-02-10T13:07:09.750Z,25.63
2023-02-10T13:09:45.923Z,25.57
2023-02-10T13:12:32.156Z,27.43
2023-02-10T13:15:15.021Z,25.60
2023-02-10T13:17:50.671Z,26.43
2023-02-10T13:20:27.964Z,26.37
2023-02-10T13:23:16.819Z,27.10
2023-02-10T13:26:05.606Z,25.57
2023-02-10T13:28:41.820Z,26.27
2023-02-10T13:31:27.500Z,26.20
2023-02-10T13:34:15.980Z,28.23
2023-02-10T13:36:48.578Z,27.43
2023-02-10T13:39:25.117Z,27.60
2023-02-10T13:42:10.461Z,26.70
2023-02-10T13:44:42.225Z,28.47
2023-02-10T13:47:09.287Z,24.63
2023-02-10T13:49:52.661Z,27.63
2023-02-10T13:52:24.757Z,27.17
2023-02-10T13:54:56.616Z,27.53
2023-02-10T13:57:36.232Z,27.37
2023-02-10T14:00:25.040Z,27.17
2023-02-10T14:03:11.631Z,26.60
2023-02-10T14:06:01.479Z,27.43
2023-02-10T14:08:59.508Z,28.20
2023-02-10T14:11:41.849Z,29.40
2023-02-10T14:14:21.115Z,30.43
2023-02-10T14:16:51.777Z,28.37
2023-02-10T14:19:29.114Z,28.13
2023-02-10T14:21:58.944Z,28.73
2023-02-10T14:24:44.780Z,30.27
2023-02-10T14:27:18.050Z,29.60
2023-02-10T14:29:57.728Z,28.30
2023-02-10T14:32:24.927Z,28.73
2023-02-10T14:35:00.166Z,29.23
2023-02-10T14:37:28.001Z,29.13
2023-02-10T14:40:00.563Z,30.23
2023-02-10T14:42:31.289Z,27.10
2023-02-10T14:45:00.585Z,27.10
2023-02-10T14:47:34.089Z,28.50
2023-02-10T14:50:01.054Z,27.87
2023-02-10T14:52:39.541Z,29.30
2023-02-10T14:55:44.335Z,26.50
2023-02-10T14:58:19.444Z,28.03
2023-02-10T15:01:11.648Z,28.53
2023-02-10T15:03:40.998Z,28.93
2023-02-10T15:06:08.219Z,29.10
2023-02-10T15:08:52.753Z,30.63
2023-02-10T15:12:02.647Z,29.67
2023-02-10T15:14:40.164Z,27.33
2023-02-10T15:17:11.077Z,26.37
2023-02-10T15:19:38.279Z,27.63
2023-02-10T15:22:41.103Z,28.93
2023-02-10T15:25:39.896Z,27.70
2023-02-10T15:28:07.630Z,26.20
2023-02-10T15:30:55.142Z,25.90
2023-02-10T15:33:25.074Z,27.60
2023-02-10T15:36:10.374Z,27.60
2023-02-10T15:38:50.204Z,26.77
2023-02-10T15:41:35.013Z,27.83
2023-02-10T15:44:05.377Z,27.50
2023-02-10T15:46:33.940Z,28.13
2023-02-10T15:49:08.425Z,27.83
2023-02-10T15:51:41.040Z,27.97
2023-02-10T15:54:16.947Z,29.43
2023-02-10T15:57:04.677Z,28.60
2023-02-10T15:59:32.850Z,26.50
2023-02-10T16:02:06.082Z,28.07
2023-02-10T16:04:33.499Z,28.57
2023-02-10T16:07:02.195Z,26.63
2023-02-10T16:09:31.446Z,27.73
2023-02-10T16:12:02.018Z,26.93
2023-02-10T16:14:29.044Z,29.07
2023-02-10T16:16:59.510Z,27.40
2023-02-10T16:19:28.560Z,27.33
2023-02-10T16:21:57.033Z,27.60
2023-02-10T16:24:29.576Z,27.23
2023-02-10T16:26:57.681Z,27.83
2023-02-10T16:29:27.100Z,27.00
2023-02-10T16:31:54.531Z,27.57
2023-02-10T16:34:21.620Z,27.33
2023-02-10T16:36:48.967Z,28.30
2023-02-10T16:39:21.465Z,26.57
2023-02-10T16:41:49.515Z,27.53
2023-02-10T16:44:17.226Z,29.23
2023-02-10T16:46:48.193Z,26.87
2023-02-10T16:49:16.790Z,28.53
2023-02-10T16:51:44.873Z,27.40
2023-02-10T16:54:12.042Z,27.97
2023-02-10T16:56:41.212Z,26.83
2023-02-10T16:59:14.526Z,28.37
2023-02-10T17:01:42.008Z,29.10
2023-02-10T17:04:08.936Z,29.20
2023-02-10T17:06:45.078Z,27.23
2023-02-10T17:09:22.006Z,26.80
2023-02-10T17:11:50.896Z,30.30
2023-02-10T17:14:18.653Z,30.70
2023-02-10T17:16:48.071Z,27.57
2023-02-10T17:19:17.274Z,30.60
2023-02-10T17:21:45.043Z,28.60
2023-02-10T17:24:12.479Z,28.10
2023-02-10T17:26:45.509Z,28.53
2023-02-10T17:29:15.459Z,28.30
2023-02-10T17:31:44.437Z,27.00
2023-02-10T17:34:11.993Z,29.07
2023-02-10T17:36:41.086Z,27.43
2023-02-10T17:39:27.476Z,26.83
2023-02-10T17:41:55.804Z,27.57
2023-02-10T17:44:23.042Z,26.47
2023-02-10T17:46:55.345Z,27.03
2023-02-10T17:49:25.052Z,26.43
2023-02-10T17:51:52.526Z,26.27
2023-02-10T17:54:20.545Z,27.43
2023-02-10T17:56:47.812Z,27.60
2023-02-10T17:59:15.534Z,28.27
2023-02-10T18:01:45.291Z,26.73
2023-02-10T18:04:14.703Z,28.70
2023-02-10T18:06:42.767Z,28.33
2023-02-10T18:09:09.760Z,26.60
2023-02-10T18:11:36.989Z,29.00
2023-02-10T18:14:03.962Z,27.90
2023-02-10T18:16:32.086Z,27.00
2023-02-10T18:18:59.035Z,27.63
2023-02-10T18:21:26.424Z,27.70
2023-02-10T18:23:53.221Z,29.97
2023-02-10T18:26:20.969Z,27.20
2023-02-10T18:28:47.852Z,27.83
2023-02-10T18:31:15.472Z,26.87
2023-02-10T18:33:42.609Z,29.03
2023-02-10T18:36:18.494Z,29.37
2023-02-10T18:38:48.538Z,28.03
2023-02-10T18:41:16.129Z,28.90
2023-02-10T18:43:43.224Z,28.63
2023-02-10T18:46:10.602Z,28.00
2023-02-10T18:48:38.190Z,29.40
2023-02-10T18:51:08.385Z,29.73
2023-02-10T18:53:40.490Z,29.63
2023-02-10T18:56:16.542Z,29.10
2023-02-10T18:58:45.475Z,29.13
2023-02-10T19:01:21.933Z,30.07
2023-02-10T19:03:49.391Z,29.63
2023-02-10T19:06:17.898Z,29.13
2023-02-10T19:08:44.800Z,30.27
2023-02-10T19:11:15.260Z,28.90
2023-02-10T19:13:43.474Z,29.97
2023-02-10T19:16:12.104Z,30.57
2023-02-10T19:18:39.276Z,30.60
2023-02-10T19:21:11.348Z,30.10
2023-02-10T19:23:40.082Z,30.50
2023-02-10T19:26:07.825Z,29.07
2023-02-10T19:28:35.774Z,29.87
2023-02-10T19:31:05.896Z,28.87
2023-02-10T19:33:33.207Z,28.30
2023-02-10T19:36:00.705Z,30.40
2023-02-10T19:38:27.839Z,27.77
2023-02-10T19:41:27.112Z,29.20
2023-02-10T19:43:55.021Z,25.37
2023-02-10T19:46:25.015Z,28.00
2023-02-10T19:48:52.633Z,26.07
2023-02-10T19:51:24.561Z,26.10
2023-02-10T19:53:52.851Z,27.90
2023-02-10T19:56:20.421Z,26.77
2023-02-10T19:58:47.325Z,29.30
2023-02-10T20:01:17.271Z,27.43
2023-02-10T20:03:50.270Z,25.07
2023-02-10T20:06:21.160Z,26.27
2023-02-10T20:08:48.131Z,26.80
2023-02-10T20:11:17.558Z,25.27
2023-02-10T20:13:45.078Z,25.47
2023-02-10T20:16:13.365Z,25.90
2023-02-10T20:18:40.632Z,25.63
2023-02-10T20:21:08.559Z,25.37
2023-02-10T20:23:37.486Z,25.57
2023-02-10T20:26:06.946Z,24.33
2023-02-10T20:28:34.540Z,24.03
2023-02-10T20:31:02.181Z,23.23
2023-02-10T20:33:30.341Z,22.67
2023-02-10T20:36:02.279Z,24.50
2023-02-10T20:38:29.524Z,23.43
2023-02-10T20:41:03.661Z,22.90
2023-02-10T20:43:31.285Z,23.50
2023-02-10T20:45:58.558Z,23.33
2023-02-10T20:48:25.824Z,22.57
2023-02-10T20:50:53.034Z,23.40
2023-02-10T20:53:19.918Z,22.53
2023-02-10T20:55:47.676Z,24.50
2023-02-10T20:58:14.845Z,22.57
2023-02-10T21:00:41.916Z,22.77
2023-02-10T21:03:12.080Z,22.30
2023-02-10T21:05:39.900Z,23.43
2023-02-10T21:08:07.118Z,22.30
2023-02-10T21:10:37.575Z,23.40
2023-02-10T21:13:04.376Z,21.33
2023-02-10T21:15:31.417Z,21.97
2023-02-10T21:17:58.203Z,20.70
2023-02-10T21:20:25.231Z,22.70
2023-02-10T21:22:54.289Z,21.60
2023-02-10T21:25:21.434Z,21.23
2023-02-10T21:27:48.214Z,21.57
2023-02-10T21:30:15.288Z,21.53
2023-02-10T21:32:45.131Z,21.60
2023-02-10T21:35:12.762Z,22.03
2023-02-10T21:37:39.651Z,21.63
2023-02-10T21:40:07.460Z,22.07
2023-02-10T21:42:34.386Z,20.33
2023-02-10T21:45:01.680Z,21.67
2023-02-10T21:47:28.458Z,20.60
2023-02-10T21:49:55.637Z,20.43
2023-02-10T21:52:22.382Z,21.03
2023-02-10T21:54:49.436Z,23.13
2023-02-10T21:57:19.012Z,22.53
2023-02-10T21:59:47.212Z,22.47
2023-02-10T22:02:15.288Z,20.30
2023-02-10T22:04:42.972Z,22.30
2023-02-10T22:07:10.703Z,19.33
2023-02-10T22:09:38.147Z,21.00
2023-02-10T22:12:06.671Z,20.50
2023-02-10T22:14:33.776Z,21.10
2023-02-10T22:17:00.821Z,20.13
2023-02-10T22:19:27.892Z,20.77
2023-02-10T22:21:54.677Z,22.27
2023-02-10T22:24:21.879Z,22.10
2023-02-10T22:26:48.639Z,22.47
2023-02-10T22:29:15.720Z,22.63
2023-02-10T22:31:44.868Z,22.80
2023-02-10T22:34:11.923Z,20.90
2023-02-10T22:36:38.664Z,22.10
2023-02-10T22:39:05.738Z,22.60
2023-02-10T22:41:32.981Z,23.73
2023-02-10T22:44:05.541Z,23.00
2023-02-10T22:46:33.029Z,23.27
2023-02-10T22:49:02.861Z,24.60
2023-02-10T22:51:31.918Z,23.47
2023-02-10T22:54:03.051Z,24.10
2023-02-10T22:56:32.454Z,25.80
2023-02-10T22:59:00.761Z,22.93
2023-02-10T23:01:33.089Z,28.30
2023-02-10T23:04:01.178Z,27.17
2023-02-10T23:06:28.506Z,26.33
2023-02-10T23:08:55.734Z,26.63
2023-02-10T23:11:26.027Z,27.43
2023-02-10T23:13:53.319Z,27.87
2023-02-10T23:16:20.128Z,28.73
2023-02-10T23:18:47.231Z,24.23
2023-02-10T23:21:18.486Z,27.10
2023-02-10T23:23:45.897Z,27.07
2023-02-10T23:26:12.721Z,28.27
2023-02-10T23:28:40.715Z,26.33
2023-02-10T23:31:12.841Z,26.40
2023-02-10T23:33:40.173Z,26.03
2023-02-10T23:36:07.080Z,27.20
2023-02-10T23:38:34.108Z,25.70
2023-02-10T23:41:00.873Z,28.50
2023-02-10T23:43:27.908Z,27.13
2023-02-10T23:45:54.754Z,26.40
2023-02-10T23:48:22.104Z,29.17
2023-02-10T23:50:48.950Z,26.97
2023-02-10T23:53:16.089Z,26.30
2023-02-10T23:55:43.025Z,26.53
2023-02-10T23:58:10.692Z,27.87
